sensor_id;sensor_type;location;lat;lon;timestamp;temperature;humidity
35563;DHT22;21665;40.108;18.302;2022-10-14T10:50:21;20.60;99.90
35563;DHT22;21665;40.108;18.302;2022-10-14T11:06:35;20.80;99.90
35563;DHT22;21665;40.108;18.302;2022-10-14T11:09:37;20.90;99.90
35563;DHT22;21665;40.108;18.302;2022-10-14T11:12:38;21.00;99.90
35563;DHT22;21665;40.108;18.302;2022-10-14T11:18:06;21.00;99.90
35563;DHT22;21665;40.108;18.302;2022-10-14T11:21:04;20.90;99.90
35563;DHT22;21665;40.108;18.302;2022-10-14T11:23:36;20.60;99.90
35563;DHT22;21665;40.108;18.302;2022-10-14T11:31:43;20.40;99.90
35563;DHT22;21665;40.108;18.302;2022-10-14T11:53:57;19.40;99.90
35563;DHT22;21665;40.108;18.302;2022-10-14T12:23:41;19.80;99.90
35563;DHT22;21665;40.108;18.302;2022-10-14T12:27:01;19.90;99.90
35563;DHT22;21665;40.108;18.302;2022-10-14T12:29:48;19.90;99.90
35563;DHT22;21665;40.108;18.302;2022-10-14T12:32:57;20.00;99.90
35563;DHT22;21665;40.108;18.302;2022-10-14T12:35:54;20.10;99.90
35563;DHT22;21665;40.108;18.302;2022-10-14T12:41:57;20.00;99.90
35563;DHT22;21665;40.108;18.302;2022-10-14T12:44:52;19.90;99.90
35563;DHT22;21665;40.108;18.302;2022-10-14T12:50:25;19.70;99.90
35563;DHT22;21665;40.108;18.302;2022-10-14T12:53:02;19.60;99.90
35563;DHT22;21665;40.108;18.302;2022-10-14T12:55:46;19.70;99.90
35563;DHT22;21665;40.108;18.302;2022-10-14T12:58:40;19.70;99.90
35563;DHT22;21665;40.108;18.302;2022-10-14T13:01:18;19.60;99.90
35563;DHT22;21665;40.108;18.302;2022-10-14T13:04:13;19.50;99.90
35563;DHT22;21665;40.108;18.302;2022-10-14T13:06:44;19.50;99.90
35563;DHT22;21665;40.108;18.302;2022-10-14T13:09:32;19.50;99.90
35563;DHT22;21665;40.108;18.302;2022-10-14T13:14:26;19.40;99.90
35563;DHT22;21665;40.108;18.302;2022-10-14T13:16:59;19.30;99.90
35563;DHT22;21665;40.108;18.302;2022-10-14T13:22:03;19.30;99.90
35563;DHT22;21665;40.108;18.302;2022-10-14T13:24:38;19.20;99.90
35563;DHT22;21665;40.108;18.302;2022-10-14T13:27:15;19.10;99.90
35563;DHT22;21665;40.108;18.302;2022-10-14T13:32:42;19.10;99.90
35563;DHT22;21665;40.108;18.302;2022-10-14T13:35:36;19.00;99.90
35563;DHT22;21665;40.108;18.302;2022-10-14T13:38:13;18.90;99.90
35563;DHT22;21665;40.108;18.302;2022-10-14T13:40:54;18.90;99.90
35563;DHT22;21665;40.108;18.302;2022-10-14T13:43:39;18.90;99.90
35563;DHT22;21665;40.108;18.302;2022-10-14T13:46:18;18.90;99.90
35563;DHT22;21665;40.108;18.302;2022-10-14T13:48:51;19.00;99.90
35563;DHT22;21665;40.108;18.302;2022-10-14T13:52:05;18.90;99.90
35563;DHT22;21665;40.108;18.302;2022-10-14T13:54:22;18.90;99.90
35563;DHT22;21665;40.108;18.302;2022-10-14T13:57:12;18.90;99.90
35563;DHT22;21665;40.108;18.302;2022-10-14T13:59:44;18.90;99.90
35563;DHT22;21665;40.108;18.302;2022-10-14T14:02:29;18.90;99.90
35563;DHT22;21665;40.108;18.302;2022-10-14T14:04:58;18.90;99.90
35563;DHT22;21665;40.108;18.302;2022-10-14T14:07:32;19.00;99.90
35563;DHT22;21665;40.108;18.302;2022-10-14T14:10:06;18.90;99.90
35563;DHT22;21665;40.108;18.302;2022-10-14T14:12:33;18.90;99.90
35563;DHT22;21665;40.108;18.302;2022-10-14T14:14:59;18.90;99.90
35563;DHT22;21665;40.108;18.302;2022-10-14T14:17:27;18.90;99.90
35563;DHT22;21665;40.108;18.302;2022-10-14T14:19:56;18.90;99.90
35563;DHT22;21665;40.108;18.302;2022-10-14T14:22:29;18.90;99.90
35563;DHT22;21665;40.108;18.302;2022-10-14T14:27:50;18.90;99.90
35563;DHT22;21665;40.108;18.302;2022-10-14T14:30:35;18.90;99.90
35563;DHT22;21665;40.108;18.302;2022-10-14T14:33:09;18.90;99.90
35563;DHT22;21665;40.108;18.302;2022-10-14T14:35:36;19.00;99.90
35563;DHT22;21665;40.108;18.302;2022-10-14T14:38:02;18.90;99.90
35563;DHT22;21665;40.108;18.302;2022-10-14T14:40:29;18.90;99.90
35563;DHT22;21665;40.108;18.302;2022-10-14T14:43:03;19.00;99.90
35563;DHT22;21665;40.108;18.302;2022-10-14T14:45:31;19.10;99.90
35563;DHT22;21665;40.108;18.302;2022-10-14T14:48:04;19.20;99.90
35563;DHT22;21665;40.108;18.302;2022-10-14T14:50:37;19.10;99.90
35563;DHT22;21665;40.108;18.302;2022-10-14T14:53:25;19.10;99.90
35563;DHT22;21665;40.108;18.302;2022-10-14T14:56:12;19.00;99.90
35563;DHT22;21665;40.108;18.302;2022-10-14T14:58:46;19.00;99.90
35563;DHT22;21665;40.108;18.302;2022-10-14T15:01:26;18.90;99.90
35563;DHT22;21665;40.108;18.302;2022-10-14T15:04:20;18.80;99.90
35563;DHT22;21665;40.108;18.302;2022-10-14T15:07:20;18.80;99.90
35563;DHT22;21665;40.108;18.302;2022-10-14T15:09:53;18.80;99.90
35563;DHT22;21665;40.108;18.302;2022-10-14T15:14:57;18.80;99.90
35563;DHT22;21665;40.108;18.302;2022-10-14T15:18:02;18.90;99.90
35563;DHT22;21665;40.108;18.302;2022-10-14T15:21:05;18.90;99.90
35563;DHT22;21665;40.108;18.302;2022-10-14T15:34:21;19.00;99.90
35563;DHT22;21665;40.108;18.302;2022-10-14T16:04:45;18.30;99.90
35563;DHT22;21665;40.108;18.302;2022-10-14T16:09:57;18.20;99.90
35563;DHT22;21665;40.108;18.302;2022-10-14T16:12:24;18.20;99.90
35563;DHT22;21665;40.108;18.302;2022-10-14T16:14:51;18.20;99.90
35563;DHT22;21665;40.108;18.302;2022-10-14T16:17:17;18.20;99.90
35563;DHT22;21665;40.108;18.302;2022-10-14T16:19:45;18.10;99.90
35563;DHT22;21665;40.108;18.302;2022-10-14T16:22:11;18.10;99.90
35563;DHT22;21665;40.108;18.302;2022-10-14T16:24:44;18.00;99.90
35563;DHT22;21665;40.108;18.302;2022-10-14T16:27:11;18.00;99.90
35563;DHT22;21665;40.108;18.302;2022-10-14T16:29:42;18.00;99.90
35563;DHT22;21665;40.108;18.302;2022-10-14T16:32:10;17.90;99.90
35563;DHT22;21665;40.108;18.302;2022-10-14T16:34:37;17.90;99.90
35563;DHT22;21665;40.108;18.302;2022-10-14T16:37:03;17.80;99.90
35563;DHT22;21665;40.108;18.302;2022-10-14T16:39:34;17.70;99.90
35563;DHT22;21665;40.108;18.302;2022-10-14T16:42:04;17.70;99.90
35563;DHT22;21665;40.108;18.302;2022-10-14T16:44:31;17.60;99.90
35563;DHT22;21665;40.108;18.302;2022-10-14T16:46:58;17.60;99.90
35563;DHT22;21665;40.108;18.302;2022-10-14T16:49:47;17.60;99.90
35563;DHT22;21665;40.108;18.302;2022-10-14T16:52:15;17.50;99.90
35563;DHT22;21665;40.108;18.302;2022-10-14T16:54:42;17.50;99.90
35563;DHT22;21665;40.108;18.302;2022-10-14T16:57:41;17.50;99.90
35563;DHT22;21665;40.108;18.302;2022-10-14T17:58:30;17.10;99.90
35563;DHT22;21665;40.108;18.302;2022-10-14T18:08:18;17.00;99.90
35563;DHT22;21665;40.108;18.302;2022-10-14T18:10:44;17.00;99.90
35563;DHT22;21665;40.108;18.302;2022-10-14T18:13:11;17.00;99.90
35563;DHT22;21665;40.108;18.302;2022-10-14T18:15:37;16.90;99.90
35563;DHT22;21665;40.108;18.302;2022-10-14T18:18:03;16.90;99.90
35563;DHT22;21665;40.108;18.302;2022-10-14T18:20:30;16.90;99.90
35563;DHT22;21665;40.108;18.302;2022-10-14T18:22:57;16.90;99.90
35563;DHT22;21665;40.108;18.302;2022-10-14T18:25:28;16.90;99.90
35563;DHT22;21665;40.108;18.302;2022-10-14T18:27:54;16.90;99.90
35563;DHT22;21665;40.108;18.302;2022-10-14T18:30:28;16.90;99.90
35563;DHT22;21665;40.108;18.302;2022-10-14T18:32:55;16.90;99.90
35563;DHT22;21665;40.108;18.302;2022-10-14T18:35:22;16.90;99.90
35563;DHT22;21665;40.108;18.302;2022-10-14T18:37:49;16.90;99.90
35563;DHT22;21665;40.108;18.302;2022-10-14T18:40:15;16.90;99.90
35563;DHT22;21665;40.108;18.302;2022-10-14T18:42:46;16.90;99.90
35563;DHT22;21665;40.108;18.302;2022-10-14T18:45:13;16.90;99.90
35563;DHT22;21665;40.108;18.302;2022-10-14T18:47:39;16.90;99.90
35563;DHT22;21665;40.108;18.302;2022-10-14T18:50:07;16.90;99.90
35563;DHT22;21665;40.108;18.302;2022-10-14T18:52:37;16.80;99.90
35563;DHT22;21665;40.108;18.302;2022-10-14T18:55:04;16.80;99.90
35563;DHT22;21665;40.108;18.302;2022-10-14T18:57:31;16.80;99.90
35563;DHT22;21665;40.108;18.302;2022-10-14T18:59:59;16.80;99.90
35563;DHT22;21665;40.108;18.302;2022-10-14T19:02:28;16.80;99.90
35563;DHT22;21665;40.108;18.302;2022-10-14T19:24:12;16.70;99.90
35563;DHT22;21665;40.108;18.302;2022-10-14T19:26:42;16.70;99.90
35563;DHT22;21665;40.108;18.302;2022-10-14T19:29:11;16.70;99.90
35563;DHT22;21665;40.108;18.302;2022-10-14T19:31:41;16.70;99.90
35563;DHT22;21665;40.108;18.302;2022-10-14T19:34:12;16.70;99.90
35563;DHT22;21665;40.108;18.302;2022-10-14T19:36:42;16.70;99.90
35563;DHT22;21665;40.108;18.302;2022-10-14T19:39:13;16.70;99.90
35563;DHT22;21665;40.108;18.302;2022-10-14T19:41:40;16.70;99.90
35563;DHT22;21665;40.108;18.302;2022-10-14T19:44:13;16.70;99.90
35563;DHT22;21665;40.108;18.302;2022-10-14T19:46:40;16.70;99.90
35563;DHT22;21665;40.108;18.302;2022-10-14T19:49:09;16.70;99.90
35563;DHT22;21665;40.108;18.302;2022-10-14T19:51:36;16.70;99.90
35563;DHT22;21665;40.108;18.302;2022-10-14T19:54:05;16.70;99.90
35563;DHT22;21665;40.108;18.302;2022-10-14T19:56:33;16.70;99.90
35563;DHT22;21665;40.108;18.302;2022-10-14T19:58:59;16.70;99.90
35563;DHT22;21665;40.108;18.302;2022-10-14T20:04:35;16.70;99.90
35563;DHT22;21665;40.108;18.302;2022-10-14T20:07:07;16.70;99.90
35563;DHT22;21665;40.108;18.302;2022-10-14T20:09:34;16.60;99.90
35563;DHT22;21665;40.108;18.302;2022-10-14T20:12:01;16.60;99.90
35563;DHT22;21665;40.108;18.302;2022-10-14T20:14:28;16.60;99.90
35563;DHT22;21665;40.108;18.302;2022-10-14T20:21:25;16.50;99.90
35563;DHT22;21665;40.108;18.302;2022-10-14T20:23:56;16.50;99.90
35563;DHT22;21665;40.108;18.302;2022-10-14T20:26:27;16.50;99.90
35563;DHT22;21665;40.108;18.302;2022-10-14T20:28:54;16.50;99.90
35563;DHT22;21665;40.108;18.302;2022-10-14T20:31:34;16.50;99.90
35563;DHT22;21665;40.108;18.302;2022-10-14T20:34:04;16.50;99.90
35563;DHT22;21665;40.108;18.302;2022-10-14T20:36:34;16.40;99.90
35563;DHT22;21665;40.108;18.302;2022-10-14T20:39:04;16.40;99.90
35563;DHT22;21665;40.108;18.302;2022-10-14T20:41:34;16.40;99.90
35563;DHT22;21665;40.108;18.302;2022-10-14T20:44:17;16.40;99.90
35563;DHT22;21665;40.108;18.302;2022-10-14T20:46:50;16.50;99.90
35563;DHT22;21665;40.108;18.302;2022-10-14T20:49:20;16.50;99.90
35563;DHT22;21665;40.108;18.302;2022-10-14T20:54:34;16.50;99.90
35563;DHT22;21665;40.108;18.302;2022-10-14T20:57:04;16.60;99.90
35563;DHT22;21665;40.108;18.302;2022-10-14T20:59:52;16.60;99.90
35563;DHT22;21665;40.108;18.302;2022-10-14T21:02:33;16.60;99.90
35563;DHT22;21665;40.108;18.302;2022-10-14T21:05:00;16.60;99.90
35563;DHT22;21665;40.108;18.302;2022-10-14T21:07:35;16.60;99.90
35563;DHT22;21665;40.108;18.302;2022-10-14T21:13:28;16.70;99.90
35563;DHT22;21665;40.108;18.302;2022-10-14T21:15:56;16.70;99.90
35563;DHT22;21665;40.108;18.302;2022-10-14T21:18:23;16.60;99.90
35563;DHT22;21665;40.108;18.302;2022-10-14T21:20:51;16.60;99.90
35563;DHT22;21665;40.108;18.302;2022-10-14T21:23:18;16.60;99.90
35563;DHT22;21665;40.108;18.302;2022-10-14T21:25:58;16.60;99.90
35563;DHT22;21665;40.108;18.302;2022-10-14T21:50:30;16.40;99.90
35563;DHT22;21665;40.108;18.302;2022-10-14T21:53:00;16.40;99.90
35563;DHT22;21665;40.108;18.302;2022-10-14T21:55:26;16.40;99.90
35563;DHT22;21665;40.108;18.302;2022-10-14T21:58:00;16.30;99.90
35563;DHT22;21665;40.108;18.302;2022-10-14T22:00:37;16.40;99.90
35563;DHT22;21665;40.108;18.302;2022-10-14T22:03:32;16.30;99.90
35563;DHT22;21665;40.108;18.302;2022-10-14T22:06:10;16.30;99.90
35563;DHT22;21665;40.108;18.302;2022-10-14T22:09:00;16.20;99.90
35563;DHT22;21665;40.108;18.302;2022-10-14T22:12:40;16.20;99.90
35563;DHT22;21665;40.108;18.302;2022-10-14T22:15:32;16.10;99.90
35563;DHT22;21665;40.108;18.302;2022-10-14T22:18:08;16.10;99.90
35563;DHT22;21665;40.108;18.302;2022-10-14T22:20:35;16.00;99.90
35563;DHT22;21665;40.108;18.302;2022-10-14T22:26:08;16.00;99.90
35563;DHT22;21665;40.108;18.302;2022-10-14T22:28:36;16.00;99.90
35563;DHT22;21665;40.108;18.302;2022-10-14T22:31:06;16.00;99.90
35563;DHT22;21665;40.108;18.302;2022-10-14T22:33:37;15.90;99.90
35563;DHT22;21665;40.108;18.302;2022-10-14T22:36:21;15.90;99.90
35563;DHT22;21665;40.108;18.302;2022-10-14T22:38:49;15.90;99.90
35563;DHT22;21665;40.108;18.302;2022-10-14T22:41:20;15.90;99.90
35563;DHT22;21665;40.108;18.302;2022-10-14T22:43:53;15.90;99.90
35563;DHT22;21665;40.108;18.302;2022-10-14T22:46:44;15.80;99.90
35563;DHT22;21665;40.108;18.302;2022-10-14T22:49:16;15.80;99.90
35563;DHT22;21665;40.108;18.302;2022-10-14T22:51:43;15.80;99.90
35563;DHT22;21665;40.108;18.302;2022-10-14T22:54:22;15.70;99.90
35563;DHT22;21665;40.108;18.302;2022-10-14T22:56:49;15.70;99.90
35563;DHT22;21665;40.108;18.302;2022-10-14T22:59:19;15.70;99.90
35563;DHT22;21665;40.108;18.302;2022-10-14T23:01:49;15.60;99.90
35563;DHT22;21665;40.108;18.302;2022-10-14T23:04:16;15.60;99.90
35563;DHT22;21665;40.108;18.302;2022-10-14T23:06:43;15.60;99.90
35563;DHT22;21665;40.108;18.302;2022-10-14T23:09:15;15.60;99.90
35563;DHT22;21665;40.108;18.302;2022-10-14T23:11:42;15.60;99.90
35563;DHT22;21665;40.108;18.302;2022-10-14T23:14:09;15.70;99.90
35563;DHT22;21665;40.108;18.302;2022-10-14T23:16:38;15.70;99.90
35563;DHT22;21665;40.108;18.302;2022-10-14T23:19:05;15.70;99.90
35563;DHT22;21665;40.108;18.302;2022-10-14T23:21:34;15.70;99.90
35563;DHT22;21665;40.108;18.302;2022-10-14T23:24:05;15.70;99.90
35563;DHT22;21665;40.108;18.302;2022-10-14T23:26:34;15.70;99.90
35563;DHT22;21665;40.108;18.302;2022-10-14T23:29:04;15.70;99.90
35563;DHT22;21665;40.108;18.302;2022-10-14T23:31:35;15.70;99.90
35563;DHT22;21665;40.108;18.302;2022-10-14T23:34:20;15.70;99.90
35563;DHT22;21665;40.108;18.302;2022-10-14T23:36:47;15.80;99.90
35563;DHT22;21665;40.108;18.302;2022-10-14T23:39:14;15.70;99.90
35563;DHT22;21665;40.108;18.302;2022-10-14T23:42:01;15.70;99.90
35563;DHT22;21665;40.108;18.302;2022-10-14T23:44:40;15.70;99.90
